Noruega — CSDJ — position and weather

sailwx.info

Track history (hours):
 
Tides and Currents Weather Stations Pressure Air Temp Water Temp Dewpoint Dewpoint Depression Visibility Wind Speed Wind Dir Waves Ship Positions

Oceanographic research ship Noruega (Portugal)

Detailed information on ship capabilities available from University of Delaware's Ocean Information Center.

Last reported at 2017-May-27 17:27 UTC. Time now 2017-May-27 17:39 UTC.
Position N 36°54' W 008°06'.

Length 47 m; draft 5.5 m.

Type: . MMSI: 263601000.

Date/timePositionNaut miles runAvg speedWind from/ knotsBaromVisibWave heightAir tempDewpointWater temp
2017-May-27 17:27N 36°54' W 008°06'4 8.8
2017-May-27 17:00N 36°56' W 008°10'4 8.9
2017-May-27 16:30N 36°58' W 008°15'5 9.0
2017-May-27 16:00N 37°00' W 008°20'5 9.0
2017-May-27 15:30N 37°03' W 008°25'4 9.0
2017-May-27 15:00N 37°05' W 008°30'3 3.4
2017-May-27 14:00N 37°08' W 008°32'0 0.0
2017-May-27 13:30N 37°08' W 008°32'0 0.0
2017-May-27 13:00N 37°08' W 008°32'0 0.0
2017-May-27 12:30N 37°08' W 008°32'0 0.0
2017-May-27 12:00N 37°08' W 008°32'0 0.0
2017-May-27 11:30N 37°08' W 008°32'0 0.0
2017-May-27 11:00N 37°08' W 008°32'0 0.0
2017-May-27 10:30N 37°08' W 008°32'0 0.0
2017-May-27 10:00N 37°08' W 008°32'0 0.0
2017-May-27 09:30N 37°08' W 008°32'0 0.0
2017-May-27 09:00N 37°08' W 008°32'0 0.0
2017-May-27 08:30N 37°08' W 008°32'0 0.0
2017-May-27 08:00N 37°08' W 008°32'0 0.0
2017-May-27 07:30N 37°08' W 008°32'0 0.0
2017-May-27 07:00N 37°08' W 008°32'0 0.0
2017-May-27 06:30N 37°08' W 008°32'0 0.0
2017-May-27 06:00N 37°08' W 008°32'0 0.0
2017-May-27 05:30N 37°08' W 008°32'0 0.0
2017-May-27 05:00N 37°08' W 008°32'0 0.0
2017-May-27 04:30N 37°08' W 008°32'0 0.0
2017-May-27 04:00N 37°08' W 008°32'0 0.0
2017-May-27 03:30N 37°08' W 008°32'0 0.0
2017-May-27 03:00N 37°08' W 008°32'0 0.0
2017-May-27 02:30N 37°08' W 008°32'0 0.0
2017-May-27 02:00N 37°08' W 008°32'0 0.0
2017-May-27 01:30N 37°08' W 008°32'0 0.0
2017-May-27 01:00N 37°08' W 008°32'0 0.0
2017-May-27 00:30N 37°08' W 008°32'0 0.0
2017-May-27 00:00N 37°08' W 008°32'0 0.0
2017-May-26 23:30N 37°08' W 008°32'0 0.0
2017-May-26 22:59N 37°08' W 008°32'0 0.0
2017-May-26 22:30N 37°08' W 008°32'0 0.0
2017-May-26 22:00N 37°08' W 008°32'0 0.0
2017-May-26 21:30N 37°08' W 008°32'0 0.0
2017-May-26 21:00N 37°08' W 008°32'0 0.0
2017-May-26 20:30N 37°08' W 008°32'0 0.0
2017-May-26 20:00N 37°08' W 008°32'0 0.0
2017-May-26 19:30N 37°08' W 008°32'0 0.0
2017-May-26 19:00N 37°08' W 008°32'0 0.0
2017-May-26 18:30N 37°08' W 008°32'0 0.0
2017-May-26 18:00N 37°08' W 008°32'0 0.0
2017-May-26 17:30N 37°08' W 008°32'0 0.0
2017-May-26 17:00N 37°08' W 008°32'0 0.0
2017-May-26 16:30N 37°08' W 008°32'0 0.0
2017-May-26 16:00N 37°08' W 008°32'0 0.0
2017-May-26 15:30N 37°08' W 008°32'0 0.0
2017-May-26 15:00N 37°08' W 008°32'0 0.1
2017-May-26 14:01N 37°08' W 008°32'2 4.8
2017-May-26 13:30N 37°05' W 008°32'0 0.9
2017-May-26 13:00N 37°05' W 008°32'0 1.0
2017-May-26 12:30N 37°05' W 008°31'2 4.6
2017-May-26 12:00N 37°05' W 008°28'3 5.3
2017-May-26 11:31N 37°04' W 008°25'3 5.8
2017-May-26 11:01N 37°04' W 008°21'3 6.2
2017-May-26 10:31N 37°03' W 008°18'3 5.6
2017-May-26 10:01N 37°02' W 008°14'3 5.3
2017-May-26 09:30N 37°01' W 008°18'2 4.0
2017-May-26 09:00N 37°01' W 008°20'1 2.9
2017-May-26 08:30N 37°01' W 008°18'2 3.2
2017-May-26 08:01N 37°02' W 008°20'4 7.9
2017-May-26 07:30N 37°03' W 008°25'4 8.5
2017-May-26 07:00N 37°05' W 008°30'3 6.4
2017-May-26 06:30N 37°02' W 008°27'4 8.6
2017-May-26 06:00N 36°59' W 008°23'4 8.7
2017-May-26 05:30N 36°56' W 008°19'4 8.8
2017-May-26 05:00N 36°53' W 008°15'6 8.5
2017-May-26 04:19N 36°49' W 008°10'0 1.0
2017-May-26 04:00N 36°49' W 008°10'2 4.6
2017-May-26 03:31N 36°51' W 008°10'1 2.1
2017-May-26 03:00N 36°52' W 008°10'3 5.5
2017-May-26 02:30N 36°55' W 008°10'3 6.1
2017-May-26 02:00N 36°58' W 008°10'3 5.9
2017-May-26 01:30N 37°01' W 008°10'3 5.7
2017-May-26 01:00N 37°01' W 008°14'4 8.3
2017-May-26 00:30N 37°01' W 008°19'2 4.0
2017-May-26 00:00N 36°59' W 008°20'2 4.9
2017-May-25 23:30N 36°57' W 008°20'2 3.9
2017-May-25 23:00N 36°55' W 008°20'3 5.1
2017-May-25 22:29N 36°52' W 008°20'4 7.5
2017-May-25 22:00N 36°48' W 008°20'2 4.4
2017-May-25 21:29N 36°46' W 008°20'3 6.5
2017-May-25 20:58N 36°48' W 008°24'6 8.4
2017-May-25 20:11N 36°52' W 008°30'0 0.4
2017-May-25 20:00N 36°52' W 008°30'3 5.8
2017-May-25 19:30N 36°55' W 008°30'2 4.9
2017-May-25 19:00N 36°58' W 008°30'2 4.3
2017-May-25 18:31N 36°60' W 008°30'3 5.1
2017-May-25 18:00N 37°02' W 008°30'2 3.8
2017-May-25 17:31N 37°04' W 008°31'4 7.9
2017-May-25 17:00N 37°04' W 008°36'3 6.5
2017-May-25 16:30N 37°04' W 008°40'3 5.6
2017-May-25 16:00N 37°01' W 008°40'2 5.0
2017-May-25 15:30N 36°59' W 008°40'2 3.8
2017-May-25 15:01N 36°57' W 008°40'5 4.8
2017-May-25 14:01N 36°52' W 008°40'4 7.2
2017-May-25 13:28N 36°51' W 008°45'5 6.9
2017-May-25 12:47N 36°49' W 008°50'3 3.6
2017-May-25 11:57N 36°52' W 008°50'3 5.5
2017-May-25 11:25N 36°55' W 008°50'3 4.9
2017-May-25 10:49N 36°58' W 008°50'3 4.8
2017-May-25 10:10N 37°01' W 008°51'0 1.9
2017-May-25 10:00N 37°01' W 008°50'1 2.3
2017-May-25 09:30N 37°01' W 008°52'5 4.2
2017-May-25 08:19N 36°59' W 008°57'16 1.2
2017-May-24 18:13N 37°15' W 008°56'2 8.2
2017-May-24 17:59N 37°14' W 008°57'0 0.7
2017-May-24 17:30N 37°14' W 008°57'3 4.5
2017-May-24 16:50N 37°17' W 008°57'6 3.7
2017-May-24 15:17N 37°20' W 009°03'1 3.8
2017-May-24 15:00N 37°21' W 009°02'9 8.1
2017-May-24 13:57N 37°22' W 008°52'3 6.3
2017-May-24 13:30N 37°24' W 008°50'2 4.4
2017-May-24 13:00N 37°26' W 008°49'2 2.6
2017-May-24 12:21N 37°25' W 008°50'1 4.0
2017-May-24 12:00N 37°24' W 008°51'2 3.5
2017-May-24 11:24N 37°26' W 008°50'4 5.6
2017-May-24 10:36N 37°27' W 008°55'1 8.5
2017-May-24 10:30N 37°27' W 008°56'4 7.3
2017-May-24 09:57N 37°28' W 009°01'11 6.5
2017-May-24 08:17N 37°33' W 008°49'3 4.2
2017-May-24 07:38N 37°30' W 008°48'1 4.3
2017-May-24 07:22N 37°32' W 008°48'1 1.3
2017-May-24 06:19N 37°33' W 008°49'1 3.3
2017-May-24 05:58N 37°33' W 008°50'0 0.3
2017-May-24 05:27N 37°33' W 008°50'0 0.1
2017-May-24 05:00N 37°33' W 008°50'0 0.6
2017-May-24 04:30N 37°33' W 008°50'1 1.0
2017-May-24 03:59N 37°33' W 008°50'1 1.3
2017-May-24 03:30N 37°33' W 008°51'2 3.4
2017-May-24 02:59N 37°33' W 008°54'2 3.7
2017-May-24 02:30N 37°33' W 008°56'0 0.9
2017-May-24 02:00N 37°33' W 008°56'1 2.7
2017-May-24 01:30N 37°33' W 008°58'5 4.3
2017-May-24 00:23N 37°32' W 009°04'0 1.3
2017-May-24 00:00N 37°32' W 009°04'3 5.9
2017-May-23 23:30N 37°32' W 009°01'1 3.0
2017-May-23 23:00N 37°32' W 008°59'2 3.2
2017-May-23 22:30N 37°32' W 008°57'3 6.3
2017-May-23 22:00N 37°32' W 008°53'2 5.0
2017-May-23 21:30N 37°32' W 008°50'1 2.3
2017-May-23 21:00N 37°33' W 008°50'4 8.0
2017-May-23 20:29N 37°38' W 008°51'3 5.1
2017-May-23 19:56N 37°40' W 008°51'2 3.8
2017-May-23 19:30N 37°39' W 008°51'2 4.2
2017-May-23 19:00N 37°37' W 008°51'1 2.3
2017-May-23 18:30N 37°36' W 008°50'2 3.8
2017-May-23 18:00N 37°38' W 008°50'2 4.3
2017-May-23 17:30N 37°39' W 008°52'4 8.1
2017-May-23 17:00N 37°39' W 008°57'3 6.7
2017-May-23 16:30N 37°40' W 009°01'4 8.5
2017-May-23 16:00N 37°45' W 009°02'3 6.7
2017-May-23 15:30N 37°45' W 008°58'4 7.9
2017-May-23 15:00N 37°45' W 008°53'3 6.6
2017-May-23 14:30N 37°49' W 008°53'4 4.4
2017-May-23 13:30N 37°44' W 008°52'3 5.7
2017-May-23 13:01N 37°47' W 008°53'3 5.8
2017-May-23 12:30N 37°45' W 008°50'3 5.2
2017-May-23 12:00N 37°48' W 008°50'3 6.6
2017-May-23 11:30N 37°51' W 008°49'4 8.3
2017-May-23 11:00N 37°51' W 008°54'2 5.0
2017-May-23 10:30N 37°51' W 008°57'4 8.2
2017-May-23 10:00N 37°51' W 009°02'3 6.8
2017-May-23 09:30N 37°55' W 009°02'3 6.5
2017-May-23 09:00N 37°57' W 008°60'4 8.1
2017-May-23 08:30N 37°57' W 008°55'3 6.1
2017-May-23 08:00N 37°60' W 008°53'2 4.0
2017-May-23 07:30N 38°02' W 008°51'2 4.4
2017-May-23 07:00N 38°04' W 008°50'4 7.2
2017-May-23 06:30N 38°00' W 008°52'3 6.9
2017-May-23 06:00N 37°57' W 008°55'2 3.4
2017-May-23 05:30N 37°58' W 008°57'0 0.8
2017-May-23 05:00N 37°58' W 008°57'0 0.7
2017-May-23 04:31N 37°57' W 008°57'1 2.4
2017-May-23 04:00N 37°56' W 008°57'2 4.3
2017-May-23 03:30N 37°54' W 008°58'2 4.0
2017-May-23 03:00N 37°52' W 008°60'2 4.9
2017-May-23 02:30N 37°51' W 009°02'2 4.9
2017-May-23 02:00N 37°49' W 009°04'1 1.4
2017-May-23 01:30N 37°48' W 009°04'3 5.7
2017-May-23 01:00N 37°48' W 009°01'3 5.5
2017-May-23 00:30N 37°48' W 008°57'2 3.7
2017-May-23 00:00N 37°48' W 008°55'2 3.5
2017-May-22 23:30N 37°48' W 008°53'2 4.9
2017-May-22 23:00N 37°48' W 008°50'1 2.9
2017-May-22 22:30N 37°49' W 008°51'4 8.7
2017-May-22 22:00N 37°52' W 008°55'4 8.2
2017-May-22 21:30N 37°56' W 008°57'4 8.6
2017-May-22 21:00N 37°60' W 008°55'4 8.7
2017-May-22 20:31N 38°04' W 008°52'4 8.9
2017-May-22 20:00N 38°08' W 008°50'2 5.0
2017-May-22 19:30N 38°10' W 008°49'2 4.1
2017-May-22 19:00N 38°12' W 008°49'2 3.9
2017-May-22 18:30N 38°14' W 008°50'3 5.1
2017-May-22 18:00N 38°17' W 008°49'1 2.9
2017-May-22 17:31N 38°18' W 008°48'2 3.9
2017-May-22 17:00N 38°16' W 008°48'3 6.6
2017-May-22 16:30N 38°19' W 008°50'4 9.1
2017-May-22 16:00N 38°18' W 008°55'4 9.0
2017-May-22 15:30N 38°18' W 009°01'2 3.8
2017-May-22 14:56N 38°20' W 009°01'8 7.4
2017-May-22 13:53N 38°25' W 009°08'1 2.3
2017-May-22 13:17N 38°25' W 009°10'2 8.2
2017-May-22 13:00N 38°25' W 009°07'3 4.8
2017-May-22 12:17N 38°22' W 009°09'2 7.5
2017-May-22 12:00N 38°20' W 009°10'5 8.6
2017-May-22 11:28N 38°23' W 009°15'3 6.8
2017-May-22 10:59N 38°26' W 009°16'4 8.7
2017-May-22 10:30N 38°29' W 009°13'3 6.2
2017-May-22 09:59N 38°33' W 009°13'2 3.4
2017-May-22 09:28N 38°31' W 009°12'1 2.7
2017-May-22 09:00N 38°32' W 009°12'4 7.2
2017-May-22 08:24N 38°35' W 009°17'2 3.7
2017-May-22 07:59N 38°36' W 009°19'1 1.6
2017-May-22 07:31N 38°35' W 009°18'2 4.7
2017-May-22 07:00N 38°37' W 009°15'4 8.6
2017-May-22 06:30N 38°33' W 009°19'4 8.4
2017-May-22 06:01N 38°30' W 009°23'3 6.2
2017-May-22 05:30N 38°28' W 009°26'0 0.2
2017-May-22 05:00N 38°28' W 009°26'2 4.8
2017-May-22 04:30N 38°26' W 009°24'3 5.0
2017-May-22 03:58N 38°24' W 009°22'2 4.4
2017-May-22 03:27N 38°22' W 009°21'2 4.4
2017-May-22 02:58N 38°20' W 009°20'2 4.4
2017-May-22 02:25N 38°18' W 009°18'2 3.8
2017-May-22 01:59N 38°17' W 009°17'2 3.7
2017-May-22 01:30N 38°15' W 009°16'2 3.6
2017-May-22 01:00N 38°14' W 009°15'2 3.7
2017-May-22 00:30N 38°12' W 009°14'2 3.9
2017-May-22 00:00N 38°10' W 009°13'2 4.0
2017-May-21 23:31N 38°08' W 009°12'2 4.1
2017-May-21 23:00N 38°07' W 009°11'2 3.9
2017-May-21 22:30N 38°05' W 009°09'1 2.7
2017-May-21 22:00N 38°04' W 009°08'3 5.5
2017-May-21 21:30N 38°04' W 009°05'1 2.1
2017-May-21 21:00N 38°04' W 009°04'2 4.8
2017-May-21 20:31N 38°04' W 009°01'3 5.1
2017-May-21 20:01N 38°04' W 008°57'1 3.0
2017-May-21 19:31N 38°04' W 008°55'2 3.7
2017-May-21 19:00N 38°04' W 008°53'4 8.1
2017-May-21 18:30N 38°07' W 008°50'4 7.8
2017-May-21 18:00N 38°03' W 008°50'4 7.3
2017-May-21 17:30N 38°03' W 008°55'4 8.5
2017-May-21 17:00N 38°03' W 009°00'3 6.0
2017-May-21 16:30N 38°06' W 009°02'4 7.0
2017-May-21 16:00N 38°09' W 009°01'4 7.9
2017-May-21 15:30N 38°09' W 008°56'4 7.7
2017-May-21 15:00N 38°09' W 008°51'3 6.1
2017-May-21 14:30N 38°11' W 008°48'6 5.7
2017-May-21 13:30N 38°15' W 008°52'4 8.4
2017-May-21 13:01N 38°15' W 008°57'4 8.5
2017-May-21 12:30N 38°19' W 008°54'6 2.1
2017-May-21 09:54N 38°23' W 008°50'3 6.9
2017-May-21 09:28N 38°24' W 008°54'4 7.8
2017-May-21 09:00N 38°22' W 008°57'2 3.7
2017-May-21 08:30N 38°23' W 008°55'0 0.3
2017-May-21 08:00N 38°23' W 008°55'5 9.1
2017-May-21 07:31N 38°20' W 008°59'4 8.0
2017-May-21 07:00N 38°19' W 009°04'5 9.1
2017-May-21 06:30N 38°20' W 009°10'1 1.5
2017-May-21 05:57N 38°20' W 009°09'0 0.9
2017-May-21 05:29N 38°20' W 009°08'3 6.0
2017-May-21 05:00N 38°20' W 009°04'2 4.1
2017-May-21 04:30N 38°20' W 009°02'1 2.2
2017-May-21 04:00N 38°20' W 009°00'3 5.2
2017-May-21 03:29N 38°20' W 008°57'1 2.2
2017-May-21 03:00N 38°20' W 008°56'2 4.2
2017-May-21 02:30N 38°20' W 008°53'1 1.9
2017-May-21 01:43N 38°20' W 008°51'1 5.0
2017-May-21 01:30N 38°20' W 008°52'3 6.0
2017-May-21 01:00N 38°20' W 008°56'3 6.5
2017-May-21 00:30N 38°20' W 009°00'4 8.1
2017-May-21 00:01N 38°21' W 009°05'4 8.8
2017-May-20 23:30N 38°22' W 009°11'4 8.8
2017-May-20 23:00N 38°23' W 009°16'4 8.3
2017-May-20 22:30N 38°25' W 009°21'4 8.6
2017-May-20 22:00N 38°28' W 009°24'4 8.7
2017-May-20 21:30N 38°32' W 009°28'4 8.9
2017-May-20 21:00N 38°35' W 009°32'5 9.1
2017-May-20 20:30N 38°39' W 009°35'8 8.2
2017-May-20 19:30N 38°47' W 009°32'4 8.5
2017-May-20 19:00N 38°50' W 009°29'2 4.6
2017-May-20 18:30N 38°53' W 009°28'1 2.3
2017-May-20 18:00N 38°52' W 009°29'4 8.5
2017-May-20 17:30N 38°56' W 009°29'5 9.5
2017-May-20 17:00N 39°00' W 009°27'3 5.0
2017-May-20 16:30N 39°02' W 009°29'2 3.6
2017-May-20 16:00N 39°03' W 009°31'2 3.3
2017-May-20 15:30N 39°02' W 009°30'1 2.9
2017-May-20 15:00N 39°01' W 009°29'3 5.7
2017-May-20 14:30N 39°02' W 009°32'8 8.4
2017-May-20 13:30N 39°03' W 009°43'4 8.4
2017-May-20 13:00N 39°02' W 009°48'4 7.0
2017-May-20 12:30N 39°04' W 009°52'4 8.9
2017-May-20 12:00N 39°08' W 009°52'3 6.0
2017-May-20 11:30N 39°11' W 009°51'4 7.2
2017-May-20 11:00N 39°11' W 009°46'4 8.1
2017-May-20 10:30N 39°11' W 009°41'4 8.0
2017-May-20 10:00N 39°11' W 009°36'4 8.0
2017-May-20 09:30N 39°11' W 009°31'4 8.0
2017-May-20 09:00N 39°11' W 009°26'2 4.1
2017-May-20 08:30N 39°10' W 009°23'2 3.5
2017-May-20 07:54N 39°12' W 009°23'0 0.5
2017-May-20 07:30N 39°12' W 009°22'1 1.6
2017-May-20 07:00N 39°13' W 009°23'4 8.0
2017-May-20 06:30N 39°09' W 009°25'3 6.6
2017-May-20 06:00N 39°06' W 009°27'3 5.1
2017-May-20 05:30N 39°09' W 009°29'2 4.3
2017-May-20 05:00N 39°09' W 009°26'2 4.7
2017-May-20 04:30N 39°07' W 009°27'3 5.1
2017-May-20 04:00N 39°05' W 009°28'2 4.8
2017-May-20 03:30N 39°03' W 009°29'2 4.7
2017-May-20 03:00N 39°00' W 009°30'3 5.6
2017-May-20 02:30N 38°58' W 009°32'3 6.0
2017-May-20 02:00N 38°55' W 009°33'3 6.4
2017-May-20 01:30N 38°52' W 009°35'3 6.3
2017-May-20 01:01N 38°49' W 009°37'3 6.0
2017-May-20 00:30N 38°46' W 009°38'3 5.6
2017-May-20 00:00N 38°44' W 009°39'3 5.3
2017-May-19 23:31N 38°41' W 009°40'2 4.1
2017-May-19 23:00N 38°40' W 009°39'4 7.3
2017-May-19 22:31N 38°39' W 009°34'3 6.9
2017-May-19 22:00N 38°38' W 009°30'4 7.5
2017-May-19 21:30N 38°38' W 009°25'4 7.6
2017-May-19 21:00N 38°39' W 009°20'3 7.0
2017-May-19 20:30N 38°41' W 009°17'3 5.3
2017-May-19 20:00N 38°42' W 009°14'0 0.0
2017-May-19 19:29N 38°42' W 009°14'0 0.0
2017-May-19 18:53N 38°42' W 009°14'0 0.0
2017-May-19 18:30N 38°42' W 009°14'0 0.0
2017-May-19 18:00N 38°42' W 009°14'0 0.0
2017-May-19 17:31N 38°42' W 009°14'0 0.0
2017-May-19 17:00N 38°42' W 009°14'0 0.0
2017-May-19 16:19N 38°42' W 009°14'0 0.0
2017-May-19 15:58N 38°42' W 009°14'0 0.0
2017-May-19 15:29N 38°42' W 009°14'0 0.0
2017-May-19 14:53N 38°42' W 009°14'0 0.0
2017-May-19 13:57N 38°42' W 009°14'0 0.0
2017-May-19 13:24N 38°42' W 009°14'0 0.0
2017-May-19 12:50N 38°42' W 009°14'0 0.0
2017-May-19 12:30N 38°42' W 009°14'0 0.0
2017-May-19 11:58N 38°42' W 009°14'0 0.0
2017-May-19 11:18N 38°42' W 009°14'0 0.0
2017-May-19 10:59N 38°42' W 009°14'0 0.0
2017-May-19 10:30N 38°42' W 009°14'0 0.0
2017-May-19 09:53N 38°42' W 009°14'0 0.0
2017-May-19 09:26N 38°42' W 009°14'0 0.0
2017-May-19 08:58N 38°42' W 009°14'0 0.0
2017-May-19 08:26N 38°42' W 009°14'0 0.0
2017-May-19 07:57N 38°42' W 009°14'0 0.0
2017-May-19 07:29N 38°42' W 009°14'0 0.0
2017-May-19 06:59N 38°42' W 009°14'0 0.0
2017-May-19 06:26N 38°42' W 009°14'0 0.0
2017-May-19 05:56N 38°42' W 009°14'0 0.0
2017-May-19 05:28N 38°42' W 009°14'0 0.0
2017-May-19 04:59N 38°42' W 009°14'0 0.0
2017-May-19 04:29N 38°42' W 009°14'0 0.0
2017-May-19 03:59N 38°42' W 009°14'0 0.0
2017-May-19 03:25N 38°42' W 009°14'0 0.0
2017-May-19 03:00N 38°42' W 009°14'0 0.0
2017-May-19 02:26N 38°42' W 009°14'0 0.0
2017-May-19 01:58N 38°42' W 009°14'0 0.0
2017-May-19 01:30N 38°42' W 009°14'0 0.0
2017-May-19 01:00N 38°42' W 009°14'0 0.0
2017-May-19 00:30N 38°42' W 009°14'0 0.0
2017-May-18 23:59N 38°42' W 009°14'0 0.0
2017-May-18 23:30N 38°42' W 009°14'0 0.0
2017-May-18 22:53N 38°42' W 009°14'0 0.0
2017-May-18 22:27N 38°42' W 009°14'0 0.0
2017-May-18 21:56N 38°42' W 009°14'0 0.0
2017-May-18 21:30N 38°42' W 009°14'0 0.0
2017-May-18 20:59N 38°42' W 009°14'0 0.0
2017-May-18 20:29N 38°42' W 009°14'0 0.0
2017-May-18 20:00N 38°42' W 009°14'0 0.0
2017-May-18 19:27N 38°42' W 009°14'0 0.0
2017-May-18 19:00N 38°42' W 009°14'0 0.0
2017-May-18 18:28N 38°42' W 009°14'0 0.0
2017-May-18 18:00N 38°42' W 009°14'0 0.0
2017-May-18 17:24N 38°42' W 009°14'0 0.0
2017-May-18 16:59N 38°42' W 009°14'0 0.0
2017-May-18 16:30N 38°42' W 009°14'0 0.0
2017-May-18 15:53N 38°42' W 009°14'0 0.0
2017-May-18 15:30N 38°42' W 009°14'0 0.0
2017-May-18 15:00N 38°42' W 009°14'0 0.0
2017-May-18 13:58N 38°42' W 009°14'0 0.0
2017-May-18 13:18N 38°42' W 009°14'0 0.0
2017-May-18 12:58N 38°42' W 009°14'0 0.0
2017-May-18 12:26N 38°42' W 009°14'0 0.0
2017-May-18 11:58N 38°42' W 009°14'0 0.0
2017-May-18 11:26N 38°42' W 009°14'0 0.0
2017-May-18 10:58N 38°42' W 009°14'0 0.0
2017-May-18 10:28N 38°42' W 009°14'0 0.0
2017-May-18 10:00N 38°42' W 009°14'0 0.0
2017-May-18 09:29N 38°42' W 009°14'0 0.0
2017-May-18 08:58N 38°42' W 009°14'0 0.0
2017-May-18 08:30N 38°42' W 009°14'0 0.0
2017-May-18 07:53N 38°42' W 009°14'0 0.0
2017-May-18 07:31N 38°42' W 009°14'0 0.0
2017-May-18 06:59N 38°42' W 009°14'0 0.0
2017-May-18 06:29N 38°42' W 009°14'0 0.0
2017-May-18 06:00N 38°42' W 009°14'0 0.0
2017-May-18 05:30N 38°42' W 009°14'0 0.0
2017-May-18 05:00N 38°42' W 009°14'0 0.0
2017-May-18 04:31N 38°42' W 009°14'0 0.0
2017-May-18 04:00N 38°42' W 009°14'0 0.0
2017-May-18 03:30N 38°42' W 009°14'0 0.0
2017-May-18 03:00N 38°42' W 009°14'0 0.0
2017-May-18 02:30N 38°42' W 009°14'0 0.0
2017-May-18 01:57N 38°42' W 009°14'0 0.0
2017-May-18 01:30N 38°42' W 009°14'0 0.0
2017-May-18 00:55N 38°42' W 009°14'0 0.0
2017-May-18 00:25N 38°42' W 009°14'0 0.0
2017-May-18 00:00N 38°42' W 009°14'0 0.0
2017-May-17 23:24N 38°42' W 009°14'0 0.0
2017-May-17 22:59N 38°42' W 009°14'0 0.0
2017-May-17 22:18N 38°42' W 009°14'0 0.0
2017-May-17 21:58N 38°42' W 009°14'0 0.0
2017-May-17 21:24N 38°42' W 009°14'0 0.0
2017-May-17 20:59N 38°42' W 009°14'0 0.0
2017-May-17 20:25N 38°42' W 009°14'0 0.0
2017-May-17 19:54N 38°42' W 009°14'0 0.0
2017-May-17 19:30N 38°42' W 009°14'0 0.0
2017-May-17 18:53N 38°42' W 009°14'0 0.0
2017-May-17 18:29N 38°42' W 009°14'0 0.0
2017-May-17 17:58N 38°42' W 009°14'0 0.0
2017-May-17 17:30N 38°42' W 009°14'  
Track history (hours):
 
Tides and Currents Weather Stations Pressure Air Temp Water Temp Dewpoint Dewpoint Depression Visibility Wind Speed Wind Dir Waves Ship Positions

Oceanographic research ship Noruega (Portugal)

Detailed information on ship capabilities available from University of Delaware's Ocean Information Center.

Last reported at 2017-May-27 17:27 UTC. Time now 2017-May-27 17:39 UTC.
Position N 36°54' W 008°06'.

Length 47 m; draft 5.5 m.

Type: . MMSI: 263601000.

Date/timePositionNaut miles runAvg speedWind from/ knotsBaromVisibWave heightAir tempDewpointWater temp
2017-May-27 17:27N 36°54' W 008°06'4 8.8
2017-May-27 17:00N 36°56' W 008°10'4 8.9
2017-May-27 16:30N 36°58' W 008°15'5 9.0
2017-May-27 16:00N 37°00' W 008°20'5 9.0
2017-May-27 15:30N 37°03' W 008°25'4 9.0
2017-May-27 15:00N 37°05' W 008°30'3 3.4
2017-May-27 14:00N 37°08' W 008°32'0 0.0
2017-May-27 13:30N 37°08' W 008°32'0 0.0
2017-May-27 13:00N 37°08' W 008°32'0 0.0
2017-May-27 12:30N 37°08' W 008°32'0 0.0
2017-May-27 12:00N 37°08' W 008°32'0 0.0
2017-May-27 11:30N 37°08' W 008°32'0 0.0
2017-May-27 11:00N 37°08' W 008°32'0 0.0
2017-May-27 10:30N 37°08' W 008°32'0 0.0
2017-May-27 10:00N 37°08' W 008°32'0 0.0
2017-May-27 09:30N 37°08' W 008°32'0 0.0
2017-May-27 09:00N 37°08' W 008°32'0 0.0
2017-May-27 08:30N 37°08' W 008°32'0 0.0
2017-May-27 08:00N 37°08' W 008°32'0 0.0
2017-May-27 07:30N 37°08' W 008°32'0 0.0
2017-May-27 07:00N 37°08' W 008°32'0 0.0
2017-May-27 06:30N 37°08' W 008°32'0 0.0
2017-May-27 06:00N 37°08' W 008°32'0 0.0
2017-May-27 05:30N 37°08' W 008°32'0 0.0
2017-May-27 05:00N 37°08' W 008°32'0 0.0
2017-May-27 04:30N 37°08' W 008°32'0 0.0
2017-May-27 04:00N 37°08' W 008°32'0 0.0
2017-May-27 03:30N 37°08' W 008°32'0 0.0
2017-May-27 03:00N 37°08' W 008°32'0 0.0
2017-May-27 02:30N 37°08' W 008°32'0 0.0
2017-May-27 02:00N 37°08' W 008°32'0 0.0
2017-May-27 01:30N 37°08' W 008°32'0 0.0
2017-May-27 01:00N 37°08' W 008°32'0 0.0
2017-May-27 00:30N 37°08' W 008°32'0 0.0
2017-May-27 00:00N 37°08' W 008°32'0 0.0
2017-May-26 23:30N 37°08' W 008°32'0 0.0
2017-May-26 22:59N 37°08' W 008°32'0 0.0
2017-May-26 22:30N 37°08' W 008°32'0 0.0
2017-May-26 22:00N 37°08' W 008°32'0 0.0
2017-May-26 21:30N 37°08' W 008°32'0 0.0
2017-May-26 21:00N 37°08' W 008°32'0 0.0
2017-May-26 20:30N 37°08' W 008°32'0 0.0
2017-May-26 20:00N 37°08' W 008°32'0 0.0
2017-May-26 19:30N 37°08' W 008°32'0 0.0
2017-May-26 19:00N 37°08' W 008°32'0 0.0
2017-May-26 18:30N 37°08' W 008°32'0 0.0
2017-May-26 18:00N 37°08' W 008°32'0 0.0
2017-May-26 17:30N 37°08' W 008°32'0 0.0
2017-May-26 17:00N 37°08' W 008°32'0 0.0
2017-May-26 16:30N 37°08' W 008°32'0 0.0
2017-May-26 16:00N 37°08' W 008°32'0 0.0
2017-May-26 15:30N 37°08' W 008°32'0 0.0
2017-May-26 15:00N 37°08' W 008°32'0 0.1
2017-May-26 14:01N 37°08' W 008°32'2 4.8
2017-May-26 13:30N 37°05' W 008°32'0 0.9
2017-May-26 13:00N 37°05' W 008°32'0 1.0
2017-May-26 12:30N 37°05' W 008°31'2 4.6
2017-May-26 12:00N 37°05' W 008°28'3 5.3
2017-May-26 11:31N 37°04' W 008°25'3 5.8
2017-May-26 11:01N 37°04' W 008°21'3 6.2
2017-May-26 10:31N 37°03' W 008°18'3 5.6
2017-May-26 10:01N 37°02' W 008°14'3 5.3
2017-May-26 09:30N 37°01' W 008°18'2 4.0
2017-May-26 09:00N 37°01' W 008°20'1 2.9
2017-May-26 08:30N 37°01' W 008°18'2 3.2
2017-May-26 08:01N 37°02' W 008°20'4 7.9
2017-May-26 07:30N 37°03' W 008°25'4 8.5
2017-May-26 07:00N 37°05' W 008°30'3 6.4
2017-May-26 06:30N 37°02' W 008°27'4 8.6
2017-May-26 06:00N 36°59' W 008°23'4 8.7
2017-May-26 05:30N 36°56' W 008°19'4 8.8
2017-May-26 05:00N 36°53' W 008°15'6 8.5
2017-May-26 04:19N 36°49' W 008°10'0 1.0
2017-May-26 04:00N 36°49' W 008°10'2 4.6
2017-May-26 03:31N 36°51' W 008°10'1 2.1
2017-May-26 03:00N 36°52' W 008°10'3 5.5
2017-May-26 02:30N 36°55' W 008°10'3 6.1
2017-May-26 02:00N 36°58' W 008°10'3 5.9
2017-May-26 01:30N 37°01' W 008°10'3 5.7
2017-May-26 01:00N 37°01' W 008°14'4 8.3
2017-May-26 00:30N 37°01' W 008°19'2 4.0
2017-May-26 00:00N 36°59' W 008°20'2 4.9
2017-May-25 23:30N 36°57' W 008°20'2 3.9
2017-May-25 23:00N 36°55' W 008°20'3 5.1
2017-May-25 22:29N 36°52' W 008°20'4 7.5
2017-May-25 22:00N 36°48' W 008°20'2 4.4
2017-May-25 21:29N 36°46' W 008°20'3 6.5
2017-May-25 20:58N 36°48' W 008°24'6 8.4
2017-May-25 20:11N 36°52' W 008°30'0 0.4
2017-May-25 20:00N 36°52' W 008°30'3 5.8
2017-May-25 19:30N 36°55' W 008°30'2 4.9
2017-May-25 19:00N 36°58' W 008°30'2 4.3
2017-May-25 18:31N 36°60' W 008°30'3 5.1
2017-May-25 18:00N 37°02' W 008°30'2 3.8
2017-May-25 17:31N 37°04' W 008°31'4 7.9
2017-May-25 17:00N 37°04' W 008°36'3 6.5
2017-May-25 16:30N 37°04' W 008°40'3 5.6
2017-May-25 16:00N 37°01' W 008°40'2 5.0
2017-May-25 15:30N 36°59' W 008°40'2 3.8
2017-May-25 15:01N 36°57' W 008°40'5 4.8
2017-May-25 14:01N 36°52' W 008°40'4 7.2
2017-May-25 13:28N 36°51' W 008°45'5 6.9
2017-May-25 12:47N 36°49' W 008°50'3 3.6
2017-May-25 11:57N 36°52' W 008°50'3 5.5
2017-May-25 11:25N 36°55' W 008°50'3 4.9
2017-May-25 10:49N 36°58' W 008°50'3 4.8
2017-May-25 10:10N 37°01' W 008°51'0 1.9
2017-May-25 10:00N 37°01' W 008°50'1 2.3
2017-May-25 09:30N 37°01' W 008°52'5 4.2
2017-May-25 08:19N 36°59' W 008°57'16 1.2
2017-May-24 18:13N 37°15' W 008°56'2 8.2
2017-May-24 17:59N 37°14' W 008°57'0 0.7
2017-May-24 17:30N 37°14' W 008°57'3 4.5
2017-May-24 16:50N 37°17' W 008°57'6 3.7
2017-May-24 15:17N 37°20' W 009°03'1 3.8
2017-May-24 15:00N 37°21' W 009°02'9 8.1
2017-May-24 13:57N 37°22' W 008°52'3 6.3
2017-May-24 13:30N 37°24' W 008°50'2 4.4
2017-May-24 13:00N 37°26' W 008°49'2 2.6
2017-May-24 12:21N 37°25' W 008°50'1 4.0
2017-May-24 12:00N 37°24' W 008°51'2 3.5
2017-May-24 11:24N 37°26' W 008°50'4 5.6
2017-May-24 10:36N 37°27' W 008°55'1 8.5
2017-May-24 10:30N 37°27' W 008°56'4 7.3
2017-May-24 09:57N 37°28' W 009°01'11 6.5
2017-May-24 08:17N 37°33' W 008°49'3 4.2
2017-May-24 07:38N 37°30' W 008°48'1 4.3
2017-May-24 07:22N 37°32' W 008°48'1 1.3
2017-May-24 06:19N 37°33' W 008°49'1 3.3
2017-May-24 05:58N 37°33' W 008°50'0 0.3
2017-May-24 05:27N 37°33' W 008°50'0 0.1
2017-May-24 05:00N 37°33' W 008°50'0 0.6
2017-May-24 04:30N 37°33' W 008°50'1 1.0
2017-May-24 03:59N 37°33' W 008°50'1 1.3
2017-May-24 03:30N 37°33' W 008°51'2 3.4
2017-May-24 02:59N 37°33' W 008°54'2 3.7
2017-May-24 02:30N 37°33' W 008°56'0 0.9
2017-May-24 02:00N 37°33' W 008°56'1 2.7
2017-May-24 01:30N 37°33' W 008°58'5 4.3
2017-May-24 00:23N 37°32' W 009°04'0 1.3
2017-May-24 00:00N 37°32' W 009°04'3 5.9
2017-May-23 23:30N 37°32' W 009°01'1 3.0
2017-May-23 23:00N 37°32' W 008°59'2 3.2
2017-May-23 22:30N 37°32' W 008°57'3 6.3
2017-May-23 22:00N 37°32' W 008°53'2 5.0
2017-May-23 21:30N 37°32' W 008°50'1 2.3
2017-May-23 21:00N 37°33' W 008°50'4 8.0
2017-May-23 20:29N 37°38' W 008°51'3 5.1
2017-May-23 19:56N 37°40' W 008°51'2 3.8
2017-May-23 19:30N 37°39' W 008°51'2 4.2
2017-May-23 19:00N 37°37' W 008°51'1 2.3
2017-May-23 18:30N 37°36' W 008°50'2 3.8
2017-May-23 18:00N 37°38' W 008°50'2 4.3
2017-May-23 17:30N 37°39' W 008°52'4 8.1
2017-May-23 17:00N 37°39' W 008°57'3 6.7
2017-May-23 16:30N 37°40' W 009°01'4 8.5
2017-May-23 16:00N 37°45' W 009°02'3 6.7
2017-May-23 15:30N 37°45' W 008°58'4 7.9
2017-May-23 15:00N 37°45' W 008°53'3 6.6
2017-May-23 14:30N 37°49' W 008°53'4 4.4
2017-May-23 13:30N 37°44' W 008°52'3 5.7
2017-May-23 13:01N 37°47' W 008°53'3 5.8
2017-May-23 12:30N 37°45' W 008°50'3 5.2
2017-May-23 12:00N 37°48' W 008°50'3 6.6
2017-May-23 11:30N 37°51' W 008°49'4 8.3
2017-May-23 11:00N 37°51' W 008°54'2 5.0
2017-May-23 10:30N 37°51' W 008°57'4 8.2
2017-May-23 10:00N 37°51' W 009°02'3 6.8
2017-May-23 09:30N 37°55' W 009°02'3 6.5
2017-May-23 09:00N 37°57' W 008°60'4 8.1
2017-May-23 08:30N 37°57' W 008°55'3 6.1
2017-May-23 08:00N 37°60' W 008°53'2 4.0
2017-May-23 07:30N 38°02' W 008°51'2 4.4
2017-May-23 07:00N 38°04' W 008°50'4 7.2
2017-May-23 06:30N 38°00' W 008°52'3 6.9
2017-May-23 06:00N 37°57' W 008°55'2 3.4
2017-May-23 05:30N 37°58' W 008°57'0 0.8
2017-May-23 05:00N 37°58' W 008°57'0 0.7
2017-May-23 04:31N 37°57' W 008°57'1 2.4
2017-May-23 04:00N 37°56' W 008°57'2 4.3
2017-May-23 03:30N 37°54' W 008°58'2 4.0
2017-May-23 03:00N 37°52' W 008°60'2 4.9
2017-May-23 02:30N 37°51' W 009°02'2 4.9
2017-May-23 02:00N 37°49' W 009°04'1 1.4
2017-May-23 01:30N 37°48' W 009°04'3 5.7
2017-May-23 01:00N 37°48' W 009°01'3 5.5
2017-May-23 00:30N 37°48' W 008°57'2 3.7
2017-May-23 00:00N 37°48' W 008°55'2 3.5
2017-May-22 23:30N 37°48' W 008°53'2 4.9
2017-May-22 23:00N 37°48' W 008°50'1 2.9
2017-May-22 22:30N 37°49' W 008°51'4 8.7
2017-May-22 22:00N 37°52' W 008°55'4 8.2
2017-May-22 21:30N 37°56' W 008°57'4 8.6
2017-May-22 21:00N 37°60' W 008°55'4 8.7
2017-May-22 20:31N 38°04' W 008°52'4 8.9
2017-May-22 20:00N 38°08' W 008°50'2 5.0
2017-May-22 19:30N 38°10' W 008°49'2 4.1
2017-May-22 19:00N 38°12' W 008°49'2 3.9
2017-May-22 18:30N 38°14' W 008°50'3 5.1
2017-May-22 18:00N 38°17' W 008°49'1 2.9
2017-May-22 17:31N 38°18' W 008°48'2 3.9
2017-May-22 17:00N 38°16' W 008°48'3 6.6
2017-May-22 16:30N 38°19' W 008°50'4 9.1
2017-May-22 16:00N 38°18' W 008°55'4 9.0
2017-May-22 15:30N 38°18' W 009°01'2 3.8
2017-May-22 14:56N 38°20' W 009°01'8 7.4
2017-May-22 13:53N 38°25' W 009°08'1 2.3
2017-May-22 13:17N 38°25' W 009°10'2 8.2
2017-May-22 13:00N 38°25' W 009°07'3 4.8
2017-May-22 12:17N 38°22' W 009°09'2 7.5
2017-May-22 12:00N 38°20' W 009°10'5 8.6
2017-May-22 11:28N 38°23' W 009°15'3 6.8
2017-May-22 10:59N 38°26' W 009°16'4 8.7
2017-May-22 10:30N 38°29' W 009°13'3 6.2
2017-May-22 09:59N 38°33' W 009°13'2 3.4
2017-May-22 09:28N 38°31' W 009°12'1 2.7
2017-May-22 09:00N 38°32' W 009°12'4 7.2
2017-May-22 08:24N 38°35' W 009°17'2 3.7
2017-May-22 07:59N 38°36' W 009°19'1 1.6
2017-May-22 07:31N 38°35' W 009°18'2 4.7
2017-May-22 07:00N 38°37' W 009°15'4 8.6
2017-May-22 06:30N 38°33' W 009°19'4 8.4
2017-May-22 06:01N 38°30' W 009°23'3 6.2
2017-May-22 05:30N 38°28' W 009°26'0 0.2
2017-May-22 05:00N 38°28' W 009°26'2 4.8
2017-May-22 04:30N 38°26' W 009°24'3 5.0
2017-May-22 03:58N 38°24' W 009°22'2 4.4
2017-May-22 03:27N 38°22' W 009°21'2 4.4
2017-May-22 02:58N 38°20' W 009°20'2 4.4
2017-May-22 02:25N 38°18' W 009°18'2 3.8
2017-May-22 01:59N 38°17' W 009°17'2 3.7
2017-May-22 01:30N 38°15' W 009°16'2 3.6
2017-May-22 01:00N 38°14' W 009°15'2 3.7
2017-May-22 00:30N 38°12' W 009°14'2 3.9
2017-May-22 00:00N 38°10' W 009°13'2 4.0
2017-May-21 23:31N 38°08' W 009°12'2 4.1
2017-May-21 23:00N 38°07' W 009°11'2 3.9
2017-May-21 22:30N 38°05' W 009°09'1 2.7
2017-May-21 22:00N 38°04' W 009°08'3 5.5
2017-May-21 21:30N 38°04' W 009°05'1 2.1
2017-May-21 21:00N 38°04' W 009°04'2 4.8
2017-May-21 20:31N 38°04' W 009°01'3 5.1
2017-May-21 20:01N 38°04' W 008°57'1 3.0
2017-May-21 19:31N 38°04' W 008°55'2 3.7
2017-May-21 19:00N 38°04' W 008°53'4 8.1
2017-May-21 18:30N 38°07' W 008°50'4 7.8
2017-May-21 18:00N 38°03' W 008°50'4 7.3
2017-May-21 17:30N 38°03' W 008°55'4 8.5
2017-May-21 17:00N 38°03' W 009°00'3 6.0
2017-May-21 16:30N 38°06' W 009°02'4 7.0
2017-May-21 16:00N 38°09' W 009°01'4 7.9
2017-May-21 15:30N 38°09' W 008°56'4 7.7
2017-May-21 15:00N 38°09' W 008°51'3 6.1
2017-May-21 14:30N 38°11' W 008°48'6 5.7
2017-May-21 13:30N 38°15' W 008°52'4 8.4
2017-May-21 13:01N 38°15' W 008°57'4 8.5
2017-May-21 12:30N 38°19' W 008°54'6 2.1
2017-May-21 09:54N 38°23' W 008°50'3 6.9
2017-May-21 09:28N 38°24' W 008°54'4 7.8
2017-May-21 09:00N 38°22' W 008°57'2 3.7
2017-May-21 08:30N 38°23' W 008°55'0 0.3
2017-May-21 08:00N 38°23' W 008°55'5 9.1
2017-May-21 07:31N 38°20' W 008°59'4 8.0
2017-May-21 07:00N 38°19' W 009°04'5 9.1
2017-May-21 06:30N 38°20' W 009°10'1 1.5
2017-May-21 05:57N 38°20' W 009°09'0 0.9
2017-May-21 05:29N 38°20' W 009°08'3 6.0
2017-May-21 05:00N 38°20' W 009°04'2 4.1
2017-May-21 04:30N 38°20' W 009°02'1 2.2
2017-May-21 04:00N 38°20' W 009°00'3 5.2
2017-May-21 03:29N 38°20' W 008°57'1 2.2
2017-May-21 03:00N 38°20' W 008°56'2 4.2
2017-May-21 02:30N 38°20' W 008°53'1 1.9
2017-May-21 01:43N 38°20' W 008°51'1 5.0
2017-May-21 01:30N 38°20' W 008°52'3 6.0
2017-May-21 01:00N 38°20' W 008°56'3 6.5
2017-May-21 00:30N 38°20' W 009°00'4 8.1
2017-May-21 00:01N 38°21' W 009°05'4 8.8
2017-May-20 23:30N 38°22' W 009°11'4 8.8
2017-May-20 23:00N 38°23' W 009°16'4 8.3
2017-May-20 22:30N 38°25' W 009°21'4 8.6
2017-May-20 22:00N 38°28' W 009°24'4 8.7
2017-May-20 21:30N 38°32' W 009°28'4 8.9
2017-May-20 21:00N 38°35' W 009°32'5 9.1
2017-May-20 20:30N 38°39' W 009°35'8 8.2
2017-May-20 19:30N 38°47' W 009°32'4 8.5
2017-May-20 19:00N 38°50' W 009°29'2 4.6
2017-May-20 18:30N 38°53' W 009°28'1 2.3
2017-May-20 18:00N 38°52' W 009°29'4 8.5
2017-May-20 17:30N 38°56' W 009°29'5 9.5
2017-May-20 17:00N 39°00' W 009°27'3 5.0
2017-May-20 16:30N 39°02' W 009°29'2 3.6
2017-May-20 16:00N 39°03' W 009°31'2 3.3
2017-May-20 15:30N 39°02' W 009°30'1 2.9
2017-May-20 15:00N 39°01' W 009°29'3 5.7
2017-May-20 14:30N 39°02' W 009°32'8 8.4
2017-May-20 13:30N 39°03' W 009°43'4 8.4
2017-May-20 13:00N 39°02' W 009°48'4 7.0
2017-May-20 12:30N 39°04' W 009°52'4 8.9
2017-May-20 12:00N 39°08' W 009°52'3 6.0
2017-May-20 11:30N 39°11' W 009°51'4 7.2
2017-May-20 11:00N 39°11' W 009°46'4 8.1
2017-May-20 10:30N 39°11' W 009°41'4 8.0
2017-May-20 10:00N 39°11' W 009°36'4 8.0
2017-May-20 09:30N 39°11' W 009°31'4 8.0
2017-May-20 09:00N 39°11' W 009°26'2 4.1
2017-May-20 08:30N 39°10' W 009°23'2 3.5
2017-May-20 07:54N 39°12' W 009°23'0 0.5
2017-May-20 07:30N 39°12' W 009°22'1 1.6
2017-May-20 07:00N 39°13' W 009°23'4 8.0
2017-May-20 06:30N 39°09' W 009°25'3 6.6
2017-May-20 06:00N 39°06' W 009°27'3 5.1
2017-May-20 05:30N 39°09' W 009°29'2 4.3
2017-May-20 05:00N 39°09' W 009°26'2 4.7
2017-May-20 04:30N 39°07' W 009°27'3 5.1
2017-May-20 04:00N 39°05' W 009°28'2 4.8
2017-May-20 03:30N 39°03' W 009°29'2 4.7
2017-May-20 03:00N 39°00' W 009°30'3 5.6
2017-May-20 02:30N 38°58' W 009°32'3 6.0
2017-May-20 02:00N 38°55' W 009°33'3 6.4
2017-May-20 01:30N 38°52' W 009°35'3 6.3
2017-May-20 01:01N 38°49' W 009°37'3 6.0
2017-May-20 00:30N 38°46' W 009°38'3 5.6
2017-May-20 00:00N 38°44' W 009°39'3 5.3
2017-May-19 23:31N 38°41' W 009°40'2 4.1
2017-May-19 23:00N 38°40' W 009°39'4 7.3
2017-May-19 22:31N 38°39' W 009°34'3 6.9
2017-May-19 22:00N 38°38' W 009°30'4 7.5
2017-May-19 21:30N 38°38' W 009°25'4 7.6
2017-May-19 21:00N 38°39' W 009°20'3 7.0
2017-May-19 20:30N 38°41' W 009°17'3 5.3
2017-May-19 20:00N 38°42' W 009°14'0 0.0
2017-May-19 19:29N 38°42' W 009°14'0 0.0
2017-May-19 18:53N 38°42' W 009°14'0 0.0
2017-May-19 18:30N 38°42' W 009°14'0 0.0
2017-May-19 18:00N 38°42' W 009°14'0 0.0
2017-May-19 17:31N 38°42' W 009°14'0 0.0
2017-May-19 17:00N 38°42' W 009°14'0 0.0
2017-May-19 16:19N 38°42' W 009°14'0 0.0
2017-May-19 15:58N 38°42' W 009°14'0 0.0
2017-May-19 15:29N 38°42' W 009°14'0 0.0
2017-May-19 14:53N 38°42' W 009°14'0 0.0
2017-May-19 13:57N 38°42' W 009°14'0 0.0
2017-May-19 13:24N 38°42' W 009°14'0 0.0
2017-May-19 12:50N 38°42' W 009°14'0 0.0
2017-May-19 12:30N 38°42' W 009°14'0 0.0
2017-May-19 11:58N 38°42' W 009°14'0 0.0
2017-May-19 11:18N 38°42' W 009°14'0 0.0
2017-May-19 10:59N 38°42' W 009°14'0 0.0
2017-May-19 10:30N 38°42' W 009°14'0 0.0
2017-May-19 09:53N 38°42' W 009°14'0 0.0
2017-May-19 09:26N 38°42' W 009°14'0 0.0
2017-May-19 08:58N 38°42' W 009°14'0 0.0
2017-May-19 08:26N 38°42' W 009°14'0 0.0
2017-May-19 07:57N 38°42' W 009°14'0 0.0
2017-May-19 07:29N 38°42' W 009°14'0 0.0
2017-May-19 06:59N 38°42' W 009°14'0 0.0
2017-May-19 06:26N 38°42' W 009°14'0 0.0
2017-May-19 05:56N 38°42' W 009°14'0 0.0
2017-May-19 05:28N 38°42' W 009°14'0 0.0
2017-May-19 04:59N 38°42' W 009°14'0 0.0
2017-May-19 04:29N 38°42' W 009°14'0 0.0
2017-May-19 03:59N 38°42' W 009°14'0 0.0
2017-May-19 03:25N 38°42' W 009°14'0 0.0
2017-May-19 03:00N 38°42' W 009°14'0 0.0
2017-May-19 02:26N 38°42' W 009°14'0 0.0
2017-May-19 01:58N 38°42' W 009°14'0 0.0
2017-May-19 01:30N 38°42' W 009°14'0 0.0
2017-May-19 01:00N 38°42' W 009°14'0 0.0
2017-May-19 00:30N 38°42' W 009°14'0 0.0
2017-May-18 23:59N 38°42' W 009°14'0 0.0
2017-May-18 23:30N 38°42' W 009°14'0 0.0
2017-May-18 22:53N 38°42' W 009°14'0 0.0
2017-May-18 22:27N 38°42' W 009°14'0 0.0
2017-May-18 21:56N 38°42' W 009°14'0 0.0
2017-May-18 21:30N 38°42' W 009°14'0 0.0
2017-May-18 20:59N 38°42' W 009°14'0 0.0
2017-May-18 20:29N 38°42' W 009°14'0 0.0
2017-May-18 20:00N 38°42' W 009°14'0 0.0
2017-May-18 19:27N 38°42' W 009°14'0 0.0
2017-May-18 19:00N 38°42' W 009°14'0 0.0
2017-May-18 18:28N 38°42' W 009°14'0 0.0
2017-May-18 18:00N 38°42' W 009°14'0 0.0
2017-May-18 17:24N 38°42' W 009°14'0 0.0
2017-May-18 16:59N 38°42' W 009°14'0 0.0
2017-May-18 16:30N 38°42' W 009°14'0 0.0
2017-May-18 15:53N 38°42' W 009°14'0 0.0
2017-May-18 15:30N 38°42' W 009°14'0 0.0
2017-May-18 15:00N 38°42' W 009°14'0 0.0
2017-May-18 13:58N 38°42' W 009°14'0 0.0
2017-May-18 13:18N 38°42' W 009°14'0 0.0
2017-May-18 12:58N 38°42' W 009°14'0 0.0
2017-May-18 12:26N 38°42' W 009°14'0 0.0
2017-May-18 11:58N 38°42' W 009°14'0 0.0
2017-May-18 11:26N 38°42' W 009°14'0 0.0
2017-May-18 10:58N 38°42' W 009°14'0 0.0
2017-May-18 10:28N 38°42' W 009°14'0 0.0
2017-May-18 10:00N 38°42' W 009°14'0 0.0
2017-May-18 09:29N 38°42' W 009°14'0 0.0
2017-May-18 08:58N 38°42' W 009°14'0 0.0
2017-May-18 08:30N 38°42' W 009°14'0 0.0
2017-May-18 07:53N 38°42' W 009°14'0 0.0
2017-May-18 07:31N 38°42' W 009°14'0 0.0
2017-May-18 06:59N 38°42' W 009°14'0 0.0
2017-May-18 06:29N 38°42' W 009°14'0 0.0
2017-May-18 06:00N 38°42' W 009°14'0 0.0
2017-May-18 05:30N 38°42' W 009°14'0 0.0
2017-May-18 05:00N 38°42' W 009°14'0 0.0
2017-May-18 04:31N 38°42' W 009°14'0 0.0
2017-May-18 04:00N 38°42' W 009°14'0 0.0
2017-May-18 03:30N 38°42' W 009°14'0 0.0
2017-May-18 03:00N 38°42' W 009°14'0 0.0
2017-May-18 02:30N 38°42' W 009°14'0 0.0
2017-May-18 01:57N 38°42' W 009°14'0 0.0
2017-May-18 01:30N 38°42' W 009°14'0 0.0
2017-May-18 00:55N 38°42' W 009°14'0 0.0
2017-May-18 00:25N 38°42' W 009°14'0 0.0
2017-May-18 00:00N 38°42' W 009°14'0 0.0
2017-May-17 23:24N 38°42' W 009°14'0 0.0
2017-May-17 22:59N 38°42' W 009°14'0 0.0
2017-May-17 22:18N 38°42' W 009°14'0 0.0
2017-May-17 21:58N 38°42' W 009°14'0 0.0
2017-May-17 21:24N 38°42' W 009°14'0 0.0
2017-May-17 20:59N 38°42' W 009°14'0 0.0
2017-May-17 20:25N 38°42' W 009°14'0 0.0
2017-May-17 19:54N 38°42' W 009°14'0 0.0
2017-May-17 19:30N 38°42' W 009°14'0 0.0
2017-May-17 18:53N 38°42' W 009°14'0 0.0
2017-May-17 18:29N 38°42' W 009°14'0 0.0
2017-May-17 17:58N 38°42' W 009°14'0 0.0
2017-May-17 17:30N 38°42' W 009°14'  

Dump ship's entire track history